sensor_id;sensor_type;location;lat;lon;timestamp;pressure;altitude;pressure_sealevel;temperature;humidity
66385;BME280;53426;55.872;37.462;2023-11-19T00:02:25;100081.78;;;-5.94;72.12
66385;BME280;53426;55.872;37.462;2023-11-19T00:04:51;100088.59;;;-5.88;72.19
66385;BME280;53426;55.872;37.462;2023-11-19T00:07:17;100083.44;;;-5.87;72.02
66385;BME280;53426;55.872;37.462;2023-11-19T00:09:42;100048.41;;;-6.08;72.38
66385;BME280;53426;55.872;37.462;2023-11-19T00:12:09;100039.06;;;-6.21;71.98
66385;BME280;53426;55.872;37.462;2023-11-19T00:14:35;100092.91;;;-5.89;71.84
66385;BME280;53426;55.872;37.462;2023-11-19T00:17:01;100081.78;;;-5.94;71.41
66385;BME280;53426;55.872;37.462;2023-11-19T00:19:27;100075.81;;;-5.99;71.28
66385;BME280;53426;55.872;37.462;2023-11-19T00:21:53;100081.81;;;-5.97;71.61
66385;BME280;53426;55.872;37.462;2023-11-19T00:24:19;100056.16;;;-6.11;71.26
66385;BME280;53426;55.872;37.462;2023-11-19T00:26:46;100086.09;;;-5.96;71.68
66385;BME280;53426;55.872;37.462;2023-11-19T00:29:12;100066.41;;;-6.03;71.11
66385;BME280;53426;55.872;37.462;2023-11-19T00:31:42;100068.16;;;-6.10;71.27
66385;BME280;53426;55.872;37.462;2023-11-19T00:34:08;100001.50;;;-6.45;71.23
66385;BME280;53426;55.872;37.462;2023-11-19T00:36:34;100078.38;;;-5.99;71.19
66385;BME280;53426;55.872;37.462;2023-11-19T00:39:00;100071.53;;;-6.00;71.66
66385;BME280;53426;55.872;37.462;2023-11-19T00:41:26;100062.13;;;-6.06;71.38
66385;BME280;53426;55.872;37.462;2023-11-19T00:43:52;100053.56;;;-6.09;71.40
66385;BME280;53426;55.872;37.462;2023-11-19T00:46:18;100028.78;;;-6.24;71.37
66385;BME280;53426;55.872;37.462;2023-11-19T00:48:44;100016.88;;;-6.37;71.35
66385;BME280;53426;55.872;37.462;2023-11-19T00:51:11;100059.53;;;-6.01;71.06
66385;BME280;53426;55.872;37.462;2023-11-19T00:53:38;100060.38;;;-6.02;71.36
66385;BME280;53426;55.872;37.462;2023-11-19T00:56:04;100045.00;;;-6.13;71.18
66385;BME280;53426;55.872;37.462;2023-11-19T00:58:30;100058.63;;;-5.97;70.96
66385;BME280;53426;55.872;37.462;2023-11-19T01:00:56;100060.34;;;-5.98;71.07
66385;BME280;53426;55.872;37.462;2023-11-19T01:03:23;100041.53;;;-6.07;71.08
66385;BME280;53426;55.872;37.462;2023-11-19T01:05:49;100053.47;;;-5.97;71.10
66385;BME280;53426;55.872;37.462;2023-11-19T01:08:16;100050.03;;;-5.96;70.75
66385;BME280;53426;55.872;37.462;2023-11-19T01:10:42;100036.25;;;-5.95;70.75
66385;BME280;53426;55.872;37.462;2023-11-19T01:13:07;100031.91;;;-5.90;70.80
66385;BME280;53426;55.872;37.462;2023-11-19T01:15:34;100026.66;;;-5.84;70.71
66385;BME280;53426;55.872;37.462;2023-11-19T01:18:01;100028.28;;;-5.77;70.50
66385;BME280;53426;55.872;37.462;2023-11-19T01:20:32;100028.22;;;-5.71;70.50
66385;BME280;53426;55.872;37.462;2023-11-19T01:23:00;100025.53;;;-5.62;70.33
66385;BME280;53426;55.872;37.462;2023-11-19T01:25:27;100007.59;;;-5.68;70.04
66385;BME280;53426;55.872;37.462;2023-11-19T01:27:53;100034.91;;;-5.52;70.05
66385;BME280;53426;55.872;37.462;2023-11-19T01:30:19;100014.22;;;-5.49;69.75
66385;BME280;53426;55.872;37.462;2023-11-19T01:32:46;100012.50;;;-5.46;69.22
66385;BME280;53426;55.872;37.462;2023-11-19T01:35:12;100032.88;;;-5.27;69.29
66385;BME280;53426;55.872;37.462;2023-11-19T01:37:38;100024.13;;;-5.15;69.06
66385;BME280;53426;55.872;37.462;2023-11-19T01:40:04;100016.22;;;-5.03;68.75
66385;BME280;53426;55.872;37.462;2023-11-19T01:42:39;100011.72;;;-4.89;68.43
66385;BME280;53426;55.872;37.462;2023-11-19T01:45:05;100013.22;;;-4.74;68.28
66385;BME280;53426;55.872;37.462;2023-11-19T01:47:35;100011.38;;;-4.65;67.73
66385;BME280;53426;55.872;37.462;2023-11-19T01:50:03;99972.91;;;-4.83;67.17
66385;BME280;53426;55.872;37.462;2023-11-19T01:52:34;100011.03;;;-4.43;67.31
66385;BME280;53426;55.872;37.462;2023-11-19T01:55:02;99986.06;;;-4.43;66.97
66385;BME280;53426;55.872;37.462;2023-11-19T01:57:29;99994.31;;;-4.23;66.55
66385;BME280;53426;55.872;37.462;2023-11-19T01:59:55;100006.19;;;-4.11;66.33
66385;BME280;53426;55.872;37.462;2023-11-19T02:02:21;99980.50;;;-4.20;65.86
66385;BME280;53426;55.872;37.462;2023-11-19T02:04:49;99975.09;;;-4.08;65.67
66385;BME280;53426;55.872;37.462;2023-11-19T02:07:15;99970.78;;;-4.09;65.19
66385;BME280;53426;55.872;37.462;2023-11-19T02:09:43;99984.38;;;-3.98;64.77
66385;BME280;53426;55.872;37.462;2023-11-19T02:12:10;99981.78;;;-3.96;64.06
66385;BME280;53426;55.872;37.462;2023-11-19T02:14:40;99994.63;;;-3.92;64.44
66385;BME280;53426;55.872;37.462;2023-11-19T02:17:28;99994.50;;;-3.86;64.25
66385;BME280;53426;55.872;37.462;2023-11-19T02:19:57;99942.41;;;-4.12;63.99
66385;BME280;53426;55.872;37.462;2023-11-19T02:22:35;99987.63;;;-3.87;63.72
66385;BME280;53426;55.872;37.462;2023-11-19T02:25:04;99997.09;;;-3.84;63.69
66385;BME280;53426;55.872;37.462;2023-11-19T02:30:17;99996.03;;;-3.75;63.94
66385;BME280;53426;55.872;37.462;2023-11-19T02:32:43;100006.34;;;-3.71;64.06
66385;BME280;53426;55.872;37.462;2023-11-19T02:35:09;99988.34;;;-3.77;63.96
66385;BME280;53426;55.872;37.462;2023-11-19T02:37:34;99995.94;;;-3.69;63.74
66385;BME280;53426;55.872;37.462;2023-11-19T02:40:00;99978.75;;;-3.73;63.52
66385;BME280;53426;55.872;37.462;2023-11-19T02:42:29;99990.50;;;-3.56;63.08
66385;BME280;53426;55.872;37.462;2023-11-19T02:44:55;99981.88;;;-3.56;62.69
66385;BME280;53426;55.872;37.462;2023-11-19T02:47:21;99955.41;;;-3.70;62.65
66385;BME280;53426;55.872;37.462;2023-11-19T02:49:51;99982.63;;;-3.51;62.63
66385;BME280;53426;55.872;37.462;2023-11-19T02:52:18;99969.72;;;-3.53;62.43
66385;BME280;53426;55.872;37.462;2023-11-19T02:54:44;99962.94;;;-3.60;62.06
66385;BME280;53426;55.872;37.462;2023-11-19T02:57:10;99979.09;;;-3.47;61.89
66385;BME280;53426;55.872;37.462;2023-11-19T02:59:39;99957.66;;;-3.54;61.79
66385;BME280;53426;55.872;37.462;2023-11-19T03:02:07;99972.44;;;-3.59;62.08
66385;BME280;53426;55.872;37.462;2023-11-19T03:04:38;99947.66;;;-3.70;62.67
66385;BME280;53426;55.872;37.462;2023-11-19T03:07:08;99973.25;;;-3.55;62.67
66385;BME280;53426;55.872;37.462;2023-11-19T03:09:34;99974.81;;;-3.48;62.60
66385;BME280;53426;55.872;37.462;2023-11-19T03:12:06;99962.72;;;-3.48;62.00
66385;BME280;53426;55.872;37.462;2023-11-19T03:14:35;99956.81;;;-3.54;62.45
66385;BME280;53426;55.872;37.462;2023-11-19T03:17:01;99967.88;;;-3.46;62.04
66385;BME280;53426;55.872;37.462;2023-11-19T03:19:26;99966.94;;;-3.44;62.54
66385;BME280;53426;55.872;37.462;2023-11-19T03:21:52;99966.88;;;-3.41;62.39
66385;BME280;53426;55.872;37.462;2023-11-19T03:24:19;99971.13;;;-3.38;62.62
66385;BME280;53426;55.872;37.462;2023-11-19T03:26:49;99969.38;;;-3.36;62.20
66385;BME280;53426;55.872;37.462;2023-11-19T03:29:17;99965.41;;;-3.54;62.30
66385;BME280;53426;55.872;37.462;2023-11-19T03:31:43;99968.13;;;-3.60;63.05
66385;BME280;53426;55.872;37.462;2023-11-19T03:34:10;99957.00;;;-3.63;63.19
66385;BME280;53426;55.872;37.462;2023-11-19T03:36:36;99956.91;;;-3.59;63.26
66385;BME280;53426;55.872;37.462;2023-11-19T03:39:02;99962.78;;;-3.51;63.61
66385;BME280;53426;55.872;37.462;2023-11-19T03:41:28;99954.28;;;-3.56;63.65
66385;BME280;53426;55.872;37.462;2023-11-19T03:43:54;99944.09;;;-3.65;63.37
66385;BME280;53426;55.872;37.462;2023-11-19T03:46:21;99946.50;;;-3.56;63.25
66385;BME280;53426;55.872;37.462;2023-11-19T03:48:49;99951.47;;;-3.47;63.06
66385;BME280;53426;55.872;37.462;2023-11-19T03:51:15;99931.75;;;-3.52;62.89
66385;BME280;53426;55.872;37.462;2023-11-19T03:53:47;99947.72;;;-3.32;63.05
66385;BME280;53426;55.872;37.462;2023-11-19T03:56:13;99936.03;;;-3.50;62.60
66385;BME280;53426;55.872;37.462;2023-11-19T03:58:39;99941.97;;;-3.46;62.99
66385;BME280;53426;55.872;37.462;2023-11-19T04:01:05;99942.97;;;-3.52;63.34
66385;BME280;53426;55.872;37.462;2023-11-19T04:03:32;99947.28;;;-3.52;63.37
66385;BME280;53426;55.872;37.462;2023-11-19T04:05:59;99936.81;;;-3.48;63.25
66385;BME280;53426;55.872;37.462;2023-11-19T04:08:24;99917.19;;;-3.56;63.38
66385;BME280;53426;55.872;37.462;2023-11-19T04:10:50;99926.78;;;-3.61;63.17
66385;BME280;53426;55.872;37.462;2023-11-19T04:13:16;99922.69;;;-3.71;63.71
66385;BME280;53426;55.872;37.462;2023-11-19T04:15:42;99894.34;;;-3.77;64.07
66385;BME280;53426;55.872;37.462;2023-11-19T04:18:10;99909.47;;;-3.59;63.94
66385;BME280;53426;55.872;37.462;2023-11-19T04:20:35;99873.59;;;-3.76;63.95
66385;BME280;53426;55.872;37.462;2023-11-19T04:23:02;99893.94;;;-3.59;63.58
66385;BME280;53426;55.872;37.462;2023-11-19T04:25:28;99910.06;;;-3.47;63.63
66385;BME280;53426;55.872;37.462;2023-11-19T04:27:54;99910.94;;;-3.48;63.89
66385;BME280;53426;55.872;37.462;2023-11-19T04:30:20;99907.59;;;-3.51;64.21
66385;BME280;53426;55.872;37.462;2023-11-19T04:32:46;99910.91;;;-3.45;64.40
66385;BME280;53426;55.872;37.462;2023-11-19T04:35:12;99907.41;;;-3.44;64.03
66385;BME280;53426;55.872;37.462;2023-11-19T04:37:39;99890.50;;;-3.60;63.88
66385;BME280;53426;55.872;37.462;2023-11-19T04:40:05;99853.88;;;-4.23;64.55
66385;BME280;53426;55.872;37.462;2023-11-19T04:42:31;99910.88;;;-3.86;64.61
66385;BME280;53426;55.872;37.462;2023-11-19T04:44:58;99890.25;;;-3.89;65.03
66385;BME280;53426;55.872;37.462;2023-11-19T04:47:24;99900.50;;;-3.83;64.80
66385;BME280;53426;55.872;37.462;2023-11-19T04:49:49;99917.44;;;-3.70;64.88
66385;BME280;53426;55.872;37.462;2023-11-19T04:52:15;99908.78;;;-3.67;64.64
66385;BME280;53426;55.872;37.462;2023-11-19T04:54:42;99927.53;;;-3.56;64.59
66385;BME280;53426;55.872;37.462;2023-11-19T04:57:11;99926.72;;;-3.60;64.49
66385;BME280;53426;55.872;37.462;2023-11-19T04:59:38;99932.06;;;-3.67;64.86
66385;BME280;53426;55.872;37.462;2023-11-19T05:02:04;99917.56;;;-3.76;64.69
66385;BME280;53426;55.872;37.462;2023-11-19T05:04:31;99933.66;;;-3.60;64.47
66385;BME280;53426;55.872;37.462;2023-11-19T05:06:56;99934.38;;;-3.54;64.50
66385;BME280;53426;55.872;37.462;2023-11-19T05:09:23;99923.88;;;-3.46;64.23
66385;BME280;53426;55.872;37.462;2023-11-19T05:11:48;99925.38;;;-3.38;63.88
66385;BME280;53426;55.872;37.462;2023-11-19T05:14:14;99921.16;;;-3.40;63.72
66385;BME280;53426;55.872;37.462;2023-11-19T05:16:41;99924.69;;;-3.44;63.64
66385;BME280;53426;55.872;37.462;2023-11-19T05:19:08;99919.53;;;-3.44;63.96
66385;BME280;53426;55.872;37.462;2023-11-19T05:21:34;99929.53;;;-3.29;63.45
66385;BME280;53426;55.872;37.462;2023-11-19T05:24:02;99916.50;;;-3.26;63.07
66385;BME280;53426;55.872;37.462;2023-11-19T05:26:31;99910.47;;;-3.26;62.59
66385;BME280;53426;55.872;37.462;2023-11-19T05:28:57;99934.44;;;-3.17;62.08
66385;BME280;53426;55.872;37.462;2023-11-19T05:31:23;99925.63;;;-3.10;62.11
66385;BME280;53426;55.872;37.462;2023-11-19T05:33:48;99925.59;;;-3.07;62.09
66385;BME280;53426;55.872;37.462;2023-11-19T05:36:14;99930.91;;;-3.13;62.25
66385;BME280;53426;55.872;37.462;2023-11-19T05:38:40;99919.94;;;-3.25;62.48
66385;BME280;53426;55.872;37.462;2023-11-19T05:41:06;99935.22;;;-3.13;62.69
66385;BME280;53426;55.872;37.462;2023-11-19T05:43:32;99906.91;;;-3.21;63.07
66385;BME280;53426;55.872;37.462;2023-11-19T05:45:58;99933.28;;;-3.04;62.55
66385;BME280;53426;55.872;37.462;2023-11-19T05:48:26;99928.91;;;-3.02;62.10
66385;BME280;53426;55.872;37.462;2023-11-19T05:50:52;99900.22;;;-3.31;61.28
66385;BME280;53426;55.872;37.462;2023-11-19T05:53:19;99937.84;;;-3.15;61.07
66385;BME280;53426;55.872;37.462;2023-11-19T05:55:45;99921.06;;;-3.37;61.48
66385;BME280;53426;55.872;37.462;2023-11-19T05:58:15;99919.34;;;-3.38;60.99
66385;BME280;53426;55.872;37.462;2023-11-19T06:00:41;99923.72;;;-3.39;61.32
66385;BME280;53426;55.872;37.462;2023-11-19T06:03:07;99933.75;;;-3.25;62.03
66385;BME280;53426;55.872;37.462;2023-11-19T06:05:33;99931.28;;;-3.31;62.20
66385;BME280;53426;55.872;37.462;2023-11-19T06:07:59;99920.06;;;-3.30;61.56
66385;BME280;53426;55.872;37.462;2023-11-19T06:10:25;99906.09;;;-3.23;60.91
66385;BME280;53426;55.872;37.462;2023-11-19T06:12:59;99892.31;;;-3.25;60.11
66385;BME280;53426;55.872;37.462;2023-11-19T06:15:26;99917.06;;;-3.12;60.65
66385;BME280;53426;55.872;37.462;2023-11-19T06:17:53;99905.34;;;-3.28;60.69
66385;BME280;53426;55.872;37.462;2023-11-19T06:20:19;99911.22;;;-3.21;61.60
66385;BME280;53426;55.872;37.462;2023-11-19T06:22:45;99880.41;;;-3.32;60.56
66385;BME280;53426;55.872;37.462;2023-11-19T06:25:12;99913.78;;;-3.20;58.55
66385;BME280;53426;55.872;37.462;2023-11-19T06:27:41;99910.31;;;-3.19;58.54
66385;BME280;53426;55.872;37.462;2023-11-19T06:30:08;99893.22;;;-3.26;59.16
66385;BME280;53426;55.872;37.462;2023-11-19T06:32:34;99902.56;;;-3.20;60.12
66385;BME280;53426;55.872;37.462;2023-11-19T06:35:00;99875.97;;;-3.27;61.03
66385;BME280;53426;55.872;37.462;2023-11-19T06:37:26;99905.59;;;-3.00;61.34
66385;BME280;53426;55.872;37.462;2023-11-19T06:39:52;99904.16;;;-3.13;61.56
66385;BME280;53426;55.872;37.462;2023-11-19T06:42:18;99877.66;;;-3.26;61.25
66385;BME280;53426;55.872;37.462;2023-11-19T06:44:44;99901.44;;;-3.09;60.34
66385;BME280;53426;55.872;37.462;2023-11-19T06:47:10;99904.78;;;-3.04;60.44
66385;BME280;53426;55.872;37.462;2023-11-19T06:49:36;99907.16;;;-2.95;60.15
66385;BME280;53426;55.872;37.462;2023-11-19T06:52:01;99902.78;;;-2.92;59.99
66385;BME280;53426;55.872;37.462;2023-11-19T06:54:28;99895.03;;;-2.94;59.61
66385;BME280;53426;55.872;37.462;2023-11-19T06:56:54;99901.09;;;-2.93;60.22
66385;BME280;53426;55.872;37.462;2023-11-19T06:59:20;99847.53;;;-3.28;59.65
66385;BME280;53426;55.872;37.462;2023-11-19T07:01:47;99915.00;;;-2.98;59.14
66385;BME280;53426;55.872;37.462;2023-11-19T07:04:12;99903.81;;;-3.00;59.04
66385;BME280;53426;55.872;37.462;2023-11-19T07:06:39;99905.38;;;-2.92;58.60
66385;BME280;53426;55.872;37.462;2023-11-19T07:09:08;99885.53;;;-2.93;57.90
66385;BME280;53426;55.872;37.462;2023-11-19T07:11:41;99875.84;;;-2.85;57.85
66385;BME280;53426;55.872;37.462;2023-11-19T07:14:08;99910.78;;;-2.66;57.27
66385;BME280;53426;55.872;37.462;2023-11-19T07:16:35;99910.94;;;-2.72;56.00
66385;BME280;53426;55.872;37.462;2023-11-19T07:19:07;99897.91;;;-2.69;55.49
66385;BME280;53426;55.872;37.462;2023-11-19T07:21:33;99887.94;;;-2.84;55.70
66385;BME280;53426;55.872;37.462;2023-11-19T07:23:59;99857.00;;;-2.92;55.14
66385;BME280;53426;55.872;37.462;2023-11-19T07:26:29;99882.50;;;-2.75;54.50
66385;BME280;53426;55.872;37.462;2023-11-19T07:28:58;99887.72;;;-2.77;53.78
66385;BME280;53426;55.872;37.462;2023-11-19T07:31:24;99892.66;;;-2.66;53.28
66385;BME280;53426;55.872;37.462;2023-11-19T07:33:50;99912.69;;;-2.73;53.02
66385;BME280;53426;55.872;37.462;2023-11-19T07:36:16;99895.69;;;-2.84;53.50
66385;BME280;53426;55.872;37.462;2023-11-19T07:38:42;99893.91;;;-2.82;52.77
66385;BME280;53426;55.872;37.462;2023-11-19T07:41:11;99886.53;;;-2.99;52.99
66385;BME280;53426;55.872;37.462;2023-11-19T07:43:43;99869.09;;;-3.28;53.17
66385;BME280;53426;55.872;37.462;2023-11-19T07:46:12;99902.94;;;-2.99;53.12
66385;BME280;53426;55.872;37.462;2023-11-19T07:48:39;99888.34;;;-3.01;53.22
66385;BME280;53426;55.872;37.462;2023-11-19T07:51:05;99848.78;;;-3.09;53.53
66385;BME280;53426;55.872;37.462;2023-11-19T07:53:31;99904.75;;;-2.67;53.08
66385;BME280;53426;55.872;37.462;2023-11-19T07:55:58;99889.59;;;-2.83;53.44
66385;BME280;53426;55.872;37.462;2023-11-19T07:58:30;99908.31;;;-2.71;53.26
66385;BME280;53426;55.872;37.462;2023-11-19T08:00:56;99891.59;;;-2.59;52.16
66385;BME280;53426;55.872;37.462;2023-11-19T08:03:22;99889.72;;;-2.53;51.45
66385;BME280;53426;55.872;37.462;2023-11-19T08:05:49;99859.81;;;-2.66;51.61
66385;BME280;53426;55.872;37.462;2023-11-19T08:08:15;99792.75;;;-3.12;51.68
66385;BME280;53426;55.872;37.462;2023-11-19T08:10:42;99872.56;;;-2.92;51.88
66385;BME280;53426;55.872;37.462;2023-11-19T08:13:10;99864.06;;;-2.99;51.91
66385;BME280;53426;55.872;37.462;2023-11-19T08:15:39;99860.69;;;-3.01;52.14
66385;BME280;53426;55.872;37.462;2023-11-19T08:18:06;99881.81;;;-2.82;52.44
66385;BME280;53426;55.872;37.462;2023-11-19T08:20:33;99793.97;;;-3.26;52.25
66385;BME280;53426;55.872;37.462;2023-11-19T08:23:01;99880.63;;;-2.69;52.02
66385;BME280;53426;55.872;37.462;2023-11-19T08:25:29;99860.16;;;-2.79;52.18
66385;BME280;53426;55.872;37.462;2023-11-19T08:27:54;99831.19;;;-2.95;51.91
66385;BME280;53426;55.872;37.462;2023-11-19T08:30:20;99873.56;;;-2.62;52.05
66385;BME280;53426;55.872;37.462;2023-11-19T08:32:46;99871.97;;;-2.68;52.35
66385;BME280;53426;55.872;37.462;2023-11-19T08:35:12;99875.88;;;-2.51;52.45
66385;BME280;53426;55.872;37.462;2023-11-19T08:37:38;99877.25;;;-2.38;51.82
66385;BME280;53426;55.872;37.462;2023-11-19T08:40:05;99841.22;;;-2.49;51.95
66385;BME280;53426;55.872;37.462;2023-11-19T08:42:32;99879.84;;;-2.38;52.11
66385;BME280;53426;55.872;37.462;2023-11-19T08:44:58;99820.56;;;-2.52;51.26
66385;BME280;53426;55.872;37.462;2023-11-19T08:47:24;99870.31;;;-2.38;51.04
66385;BME280;53426;55.872;37.462;2023-11-19T08:49:51;99866.75;;;-2.34;51.58
66385;BME280;53426;55.872;37.462;2023-11-19T08:52:18;99873.59;;;-2.31;51.16
66385;BME280;53426;55.872;37.462;2023-11-19T08:54:44;99861.53;;;-2.32;51.35
66385;BME280;53426;55.872;37.462;2023-11-19T08:57:10;99847.25;;;-2.48;51.37
66385;BME280;53426;55.872;37.462;2023-11-19T08:59:36;99858.81;;;-2.62;51.70
66385;BME280;53426;55.872;37.462;2023-11-19T09:02:05;99866.09;;;-2.74;52.04
66385;BME280;53426;55.872;37.462;2023-11-19T09:04:31;99851.25;;;-2.69;51.97
66385;BME280;53426;55.872;37.462;2023-11-19T09:06:59;99860.38;;;-2.55;52.58
66385;BME280;53426;55.872;37.462;2023-11-19T09:09:25;99858.38;;;-2.45;52.01
66385;BME280;53426;55.872;37.462;2023-11-19T09:11:51;99868.38;;;-2.30;52.23
66385;BME280;53426;55.872;37.462;2023-11-19T09:14:17;99854.84;;;-2.41;51.79
66385;BME280;53426;55.872;37.462;2023-11-19T09:16:44;99823.31;;;-2.57;51.68
66385;BME280;53426;55.872;37.462;2023-11-19T09:19:10;99862.50;;;-2.36;51.51
66385;BME280;53426;55.872;37.462;2023-11-19T09:21:36;99858.50;;;-2.48;52.28
66385;BME280;53426;55.872;37.462;2023-11-19T09:24:04;99846.50;;;-2.52;52.28
66385;BME280;53426;55.872;37.462;2023-11-19T09:26:30;99836.91;;;-2.50;51.85
66385;BME280;53426;55.872;37.462;2023-11-19T09:28:57;99841.94;;;-2.44;51.32
66385;BME280;53426;55.872;37.462;2023-11-19T09:31:23;99858.22;;;-2.39;51.41
66385;BME280;53426;55.872;37.462;2023-11-19T09:33:51;99849.75;;;-2.45;51.35
66385;BME280;53426;55.872;37.462;2023-11-19T09:36:16;99813.84;;;-2.59;51.26
66385;BME280;53426;55.872;37.462;2023-11-19T09:38:45;99833.75;;;-2.29;50.76
66385;BME280;53426;55.872;37.462;2023-11-19T09:41:12;99816.59;;;-2.33;50.79
66385;BME280;53426;55.872;37.462;2023-11-19T09:43:39;99794.81;;;-2.27;51.17
66385;BME280;53426;55.872;37.462;2023-11-19T09:46:06;99811.88;;;-2.19;50.61
66385;BME280;53426;55.872;37.462;2023-11-19T09:48:33;99807.09;;;-2.03;50.60
66385;BME280;53426;55.872;37.462;2023-11-19T09:51:01;99804.91;;;-1.87;49.90
66385;BME280;53426;55.872;37.462;2023-11-19T09:53:28;99799.88;;;-1.92;50.19
66385;BME280;53426;55.872;37.462;2023-11-19T09:55:55;99815.25;;;-1.86;49.89
66385;BME280;53426;55.872;37.462;2023-11-19T09:58:22;99796.31;;;-1.89;50.32
66385;BME280;53426;55.872;37.462;2023-11-19T10:00:49;99772.75;;;-1.82;49.40
66385;BME280;53426;55.872;37.462;2023-11-19T10:03:15;99787.56;;;-1.57;49.82
66385;BME280;53426;55.872;37.462;2023-11-19T10:05:41;99789.78;;;-1.45;49.37
66385;BME280;53426;55.872;37.462;2023-11-19T10:08:07;99798.91;;;-1.60;48.17
66385;BME280;53426;55.872;37.462;2023-11-19T10:10:34;99793.16;;;-1.70;48.86
66385;BME280;53426;55.872;37.462;2023-11-19T10:13:00;99798.84;;;-1.86;50.01
66385;BME280;53426;55.872;37.462;2023-11-19T10:15:26;99796.31;;;-2.19;50.55
66385;BME280;53426;55.872;37.462;2023-11-19T10:17:58;99757.94;;;-2.37;50.51
66385;BME280;53426;55.872;37.462;2023-11-19T10:20:24;99795.34;;;-2.15;53.75
66385;BME280;53426;55.872;37.462;2023-11-19T10:22:55;99763.00;;;-2.34;51.84
66385;BME280;53426;55.872;37.462;2023-11-19T10:25:27;99781.19;;;-2.04;51.80
66385;BME280;53426;55.872;37.462;2023-11-19T10:27:55;99711.09;;;-2.31;52.78
66385;BME280;53426;55.872;37.462;2023-11-19T10:30:28;99782.44;;;-1.88;52.16
66385;BME280;53426;55.872;37.462;2023-11-19T10:33:11;99711.53;;;-2.46;51.37
66385;BME280;53426;55.872;37.462;2023-11-19T10:35:57;99769.56;;;-2.21;51.51
66385;BME280;53426;55.872;37.462;2023-11-19T10:38:24;99764.44;;;-2.53;50.76
66385;BME280;53426;55.872;37.462;2023-11-19T10:40:53;99779.00;;;-2.49;50.59
66385;BME280;53426;55.872;37.462;2023-11-19T10:43:23;99729.66;;;-2.77;50.41
66385;BME280;53426;55.872;37.462;2023-11-19T10:45:49;99761.41;;;-2.69;50.39
66385;BME280;53426;55.872;37.462;2023-11-19T10:48:16;99732.13;;;-3.05;50.48
66385;BME280;53426;55.872;37.462;2023-11-19T10:50:43;99753.13;;;-3.15;51.04
66385;BME280;53426;55.872;37.462;2023-11-19T10:53:11;99795.94;;;-3.01;51.22
66385;BME280;53426;55.872;37.462;2023-11-19T10:55:39;99788.19;;;-3.02;51.16
66385;BME280;53426;55.872;37.462;2023-11-19T10:58:10;99769.94;;;-2.98;50.95
66385;BME280;53426;55.872;37.462;2023-11-19T11:00:57;99782.47;;;-2.81;50.87
66385;BME280;53426;55.872;37.462;2023-11-19T11:03:25;99770.69;;;-2.94;50.68
66385;BME280;53426;55.872;37.462;2023-11-19T11:05:53;99776.78;;;-2.95;50.71
66385;BME280;53426;55.872;37.462;2023-11-19T11:08:20;99780.19;;;-2.93;51.18
66385;BME280;53426;55.872;37.462;2023-11-19T11:10:54;99778.38;;;-2.89;51.67
66385;BME280;53426;55.872;37.462;2023-11-19T11:13:22;99766.22;;;-2.87;51.26
66385;BME280;53426;55.872;37.462;2023-11-19T11:15:50;99782.47;;;-2.81;51.27
66385;BME280;53426;55.872;37.462;2023-11-19T11:18:17;99763.22;;;-2.72;51.07
66385;BME280;53426;55.872;37.462;2023-11-19T11:20:44;99757.75;;;-2.62;50.87
66385;BME280;53426;55.872;37.462;2023-11-19T11:26:35;99772.56;;;-2.67;51.08
66385;BME280;53426;55.872;37.462;2023-11-19T11:29:08;99777.84;;;-2.70;50.22
66385;BME280;53426;55.872;37.462;2023-11-19T11:39:49;99760.28;;;-2.91;51.13
66385;BME280;53426;55.872;37.462;2023-11-19T11:45:03;99755.69;;;-2.81;51.09
66385;BME280;53426;55.872;37.462;2023-11-19T11:50:19;99738.94;;;-2.68;50.72
66385;BME280;53426;55.872;37.462;2023-11-19T11:55:24;99755.84;;;-2.87;51.55
66385;BME280;53426;55.872;37.462;2023-11-19T11:57:51;99745.50;;;-2.87;51.72
66385;BME280;53426;55.872;37.462;2023-11-19T12:03:02;99734.72;;;-2.72;51.68
66385;BME280;53426;55.872;37.462;2023-11-19T12:05:29;99713.81;;;-2.97;52.07
66385;BME280;53426;55.872;37.462;2023-11-19T12:08:00;99755.00;;;-2.88;53.10
66385;BME280;53426;55.872;37.462;2023-11-19T12:10:50;99746.66;;;-2.99;54.24
66385;BME280;53426;55.872;37.462;2023-11-19T12:13:18;99717.25;;;-3.30;55.00
66385;BME280;53426;55.872;37.462;2023-11-19T12:18:24;99738.47;;;-3.50;56.72
66385;BME280;53426;55.872;37.462;2023-11-19T12:20:53;99748.81;;;-3.50;57.03
66385;BME280;53426;55.872;37.462;2023-11-19T12:23:18;99728.47;;;-3.65;57.62
66385;BME280;53426;55.872;37.462;2023-11-19T12:25:44;99743.53;;;-3.46;57.58
66385;BME280;53426;55.872;37.462;2023-11-19T12:28:15;99749.22;;;-3.31;57.39
66385;BME280;53426;55.872;37.462;2023-11-19T12:30:45;99731.38;;;-3.44;56.80
66385;BME280;53426;55.872;37.462;2023-11-19T12:33:12;99752.16;;;-3.45;57.29
66385;BME280;53426;55.872;37.462;2023-11-19T12:35:42;99718.22;;;-3.70;57.52
66385;BME280;53426;55.872;37.462;2023-11-19T12:38:21;99731.88;;;-3.63;57.52
66385;BME280;53426;55.872;37.462;2023-11-19T12:40:47;99740.50;;;-3.63;57.70
66385;BME280;53426;55.872;37.462;2023-11-19T12:43:22;99714.97;;;-3.78;58.10
66385;BME280;53426;55.872;37.462;2023-11-19T12:45:48;99716.75;;;-3.82;57.31
66385;BME280;53426;55.872;37.462;2023-11-19T12:48:14;99699.56;;;-3.83;56.75
66385;BME280;53426;55.872;37.462;2023-11-19T12:50:57;99726.78;;;-3.66;56.22
66385;BME280;53426;55.872;37.462;2023-11-19T12:53:26;99731.03;;;-3.64;56.23
66385;BME280;53426;55.872;37.462;2023-11-19T12:55:54;99727.03;;;-3.77;56.14
66385;BME280;53426;55.872;37.462;2023-11-19T12:58:35;99725.09;;;-3.69;56.00
66385;BME280;53426;55.872;37.462;2023-11-19T13:01:06;99678.28;;;-3.94;55.99
66385;BME280;53426;55.872;37.462;2023-11-19T13:03:36;99717.72;;;-3.84;56.31
66385;BME280;53426;55.872;37.462;2023-11-19T13:06:07;99719.56;;;-3.91;56.64
66385;BME280;53426;55.872;37.462;2023-11-19T13:08:42;99714.91;;;-3.75;56.44
66385;BME280;53426;55.872;37.462;2023-11-19T13:11:09;99696.06;;;-3.82;56.29
66385;BME280;53426;55.872;37.462;2023-11-19T13:14:13;99690.59;;;-3.68;56.52
66385;BME280;53426;55.872;37.462;2023-11-19T13:16:39;99705.16;;;-3.64;56.34
66385;BME280;53426;55.872;37.462;2023-11-19T13:19:05;99705.16;;;-3.65;56.38